sensor_id;sensor_type;location;lat;lon;timestamp;P1;durP1;ratioP1;P2;durP2;ratioP2
43154;SDS011;34212;51.018;13.586;2024-01-15T00:03:43;12.75;;;6.47;;
43154;SDS011;34212;51.018;13.586;2024-01-15T00:08:48;11.30;;;6.93;;
43154;SDS011;34212;51.018;13.586;2024-01-15T00:13:49;11.10;;;5.82;;
43154;SDS011;34212;51.018;13.586;2024-01-15T00:18:51;11.40;;;5.95;;
43154;SDS011;34212;51.018;13.586;2024-01-15T00:23:52;12.52;;;7.00;;
43154;SDS011;34212;51.018;13.586;2024-01-15T00:28:54;11.07;;;7.47;;
43154;SDS011;34212;51.018;13.586;2024-01-15T00:33:56;11.27;;;6.78;;
43154;SDS011;34212;51.018;13.586;2024-01-15T00:38:58;11.70;;;6.38;;
43154;SDS011;34212;51.018;13.586;2024-01-15T00:44:00;12.07;;;7.30;;
43154;SDS011;34212;51.018;13.586;2024-01-15T00:49:02;11.15;;;6.47;;
43154;SDS011;34212;51.018;13.586;2024-01-15T00:54:04;10.63;;;6.20;;
43154;SDS011;34212;51.018;13.586;2024-01-15T00:59:06;13.40;;;6.93;;
43154;SDS011;34212;51.018;13.586;2024-01-15T01:04:09;8.93;;;5.93;;
43154;SDS011;34212;51.018;13.586;2024-01-15T01:09:11;9.97;;;5.90;;
43154;SDS011;34212;51.018;13.586;2024-01-15T01:14:13;14.18;;;7.03;;
43154;SDS011;34212;51.018;13.586;2024-01-15T01:19:14;12.07;;;6.00;;
43154;SDS011;34212;51.018;13.586;2024-01-15T01:24:16;11.60;;;7.47;;
43154;SDS011;34212;51.018;13.586;2024-01-15T01:29:17;14.15;;;7.03;;
43154;SDS011;34212;51.018;13.586;2024-01-15T01:34:19;11.88;;;6.95;;
43154;SDS011;34212;51.018;13.586;2024-01-15T01:39:21;14.13;;;7.55;;
43154;SDS011;34212;51.018;13.586;2024-01-15T01:44:22;12.07;;;6.82;;
43154;SDS011;34212;51.018;13.586;2024-01-15T01:49:24;13.95;;;7.00;;
43154;SDS011;34212;51.018;13.586;2024-01-15T01:54:27;11.50;;;6.77;;
43154;SDS011;34212;51.018;13.586;2024-01-15T01:59:32;11.10;;;6.90;;
43154;SDS011;34212;51.018;13.586;2024-01-15T02:04:35;15.45;;;7.35;;
43154;SDS011;34212;51.018;13.586;2024-01-15T02:09:38;14.20;;;7.63;;
43154;SDS011;34212;51.018;13.586;2024-01-15T02:14:39;12.75;;;7.85;;
43154;SDS011;34212;51.018;13.586;2024-01-15T02:19:41;14.80;;;7.10;;
43154;SDS011;34212;51.018;13.586;2024-01-15T02:24:43;16.52;;;7.65;;
43154;SDS011;34212;51.018;13.586;2024-01-15T02:29:44;14.93;;;7.63;;
43154;SDS011;34212;51.018;13.586;2024-01-15T02:34:46;12.60;;;7.25;;
43154;SDS011;34212;51.018;13.586;2024-01-15T02:39:48;12.20;;;7.00;;
43154;SDS011;34212;51.018;13.586;2024-01-15T02:44:49;15.63;;;8.02;;
43154;SDS011;34212;51.018;13.586;2024-01-15T02:49:51;12.82;;;8.07;;
43154;SDS011;34212;51.018;13.586;2024-01-15T02:54:52;13.90;;;8.68;;
43154;SDS011;34212;51.018;13.586;2024-01-15T02:59:54;15.80;;;8.93;;
43154;SDS011;34212;51.018;13.586;2024-01-15T03:04:55;16.70;;;8.88;;
43154;SDS011;34212;51.018;13.586;2024-01-15T03:09:57;14.98;;;7.45;;
43154;SDS011;34212;51.018;13.586;2024-01-15T03:14:58;15.50;;;8.75;;
43154;SDS011;34212;51.018;13.586;2024-01-15T03:20:01;16.23;;;8.27;;
43154;SDS011;34212;51.018;13.586;2024-01-15T03:25:04;14.93;;;7.93;;
43154;SDS011;34212;51.018;13.586;2024-01-15T03:30:06;15.70;;;8.48;;
43154;SDS011;34212;51.018;13.586;2024-01-15T03:35:08;18.83;;;9.63;;
43154;SDS011;34212;51.018;13.586;2024-01-15T03:40:10;17.30;;;9.32;;
43154;SDS011;34212;51.018;13.586;2024-01-15T03:45:12;18.00;;;9.53;;
43154;SDS011;34212;51.018;13.586;2024-01-15T03:50:14;16.77;;;10.02;;
43154;SDS011;34212;51.018;13.586;2024-01-15T03:55:15;15.55;;;8.80;;
43154;SDS011;34212;51.018;13.586;2024-01-15T04:00:17;17.35;;;9.68;;
43154;SDS011;34212;51.018;13.586;2024-01-15T04:05:19;17.02;;;8.38;;
43154;SDS011;34212;51.018;13.586;2024-01-15T04:10:20;17.10;;;8.93;;
43154;SDS011;34212;51.018;13.586;2024-01-15T04:15:22;18.85;;;9.18;;
43154;SDS011;34212;51.018;13.586;2024-01-15T04:20:23;12.63;;;7.80;;
43154;SDS011;34212;51.018;13.586;2024-01-15T04:25:26;15.80;;;8.68;;
43154;SDS011;34212;51.018;13.586;2024-01-15T04:30:27;13.90;;;8.25;;
43154;SDS011;34212;51.018;13.586;2024-01-15T04:35:32;16.98;;;10.13;;
43154;SDS011;34212;51.018;13.586;2024-01-15T04:40:35;15.77;;;8.00;;
43154;SDS011;34212;51.018;13.586;2024-01-15T04:45:36;16.52;;;8.57;;
43154;SDS011;34212;51.018;13.586;2024-01-15T04:50:38;16.17;;;8.98;;
43154;SDS011;34212;51.018;13.586;2024-01-15T04:55:39;16.67;;;7.95;;
43154;SDS011;34212;51.018;13.586;2024-01-15T05:00:41;16.27;;;8.90;;
43154;SDS011;34212;51.018;13.586;2024-01-15T05:05:43;17.05;;;8.50;;
43154;SDS011;34212;51.018;13.586;2024-01-15T05:10:44;17.27;;;10.13;;
43154;SDS011;34212;51.018;13.586;2024-01-15T05:15:46;17.67;;;9.20;;
43154;SDS011;34212;51.018;13.586;2024-01-15T05:20:48;18.10;;;8.63;;
43154;SDS011;34212;51.018;13.586;2024-01-15T05:25:50;14.65;;;8.63;;
43154;SDS011;34212;51.018;13.586;2024-01-15T05:30:51;18.70;;;9.43;;
43154;SDS011;34212;51.018;13.586;2024-01-15T05:35:54;15.70;;;7.97;;
43154;SDS011;34212;51.018;13.586;2024-01-15T05:40:55;16.90;;;8.52;;
43154;SDS011;34212;51.018;13.586;2024-01-15T05:45:57;19.15;;;8.65;;
43154;SDS011;34212;51.018;13.586;2024-01-15T05:50:59;19.75;;;9.15;;
43154;SDS011;34212;51.018;13.586;2024-01-15T05:56:01;15.57;;;7.68;;
43154;SDS011;34212;51.018;13.586;2024-01-15T06:01:02;17.60;;;8.90;;
43154;SDS011;34212;51.018;13.586;2024-01-15T06:06:04;13.95;;;7.55;;
43154;SDS011;34212;51.018;13.586;2024-01-15T06:11:06;13.48;;;8.13;;
43154;SDS011;34212;51.018;13.586;2024-01-15T06:16:13;12.33;;;7.43;;
43154;SDS011;34212;51.018;13.586;2024-01-15T06:21:16;16.08;;;7.72;;
43154;SDS011;34212;51.018;13.586;2024-01-15T06:26:18;12.25;;;6.82;;
43154;SDS011;34212;51.018;13.586;2024-01-15T06:31:19;14.20;;;7.05;;
43154;SDS011;34212;51.018;13.586;2024-01-15T06:36:21;13.00;;;7.07;;
43154;SDS011;34212;51.018;13.586;2024-01-15T06:41:23;11.73;;;6.00;;
43154;SDS011;34212;51.018;13.586;2024-01-15T06:51:28;12.93;;;6.47;;
43154;SDS011;34212;51.018;13.586;2024-01-15T06:56:31;13.70;;;7.50;;
43154;SDS011;34212;51.018;13.586;2024-01-15T07:01:33;13.37;;;7.37;;
43154;SDS011;34212;51.018;13.586;2024-01-15T07:06:34;13.98;;;6.93;;
43154;SDS011;34212;51.018;13.586;2024-01-15T07:11:37;12.77;;;6.63;;
43154;SDS011;34212;51.018;13.586;2024-01-15T07:16:38;10.82;;;5.80;;
43154;SDS011;34212;51.018;13.586;2024-01-15T07:21:41;15.03;;;6.70;;
43154;SDS011;34212;51.018;13.586;2024-01-15T07:26:44;13.55;;;6.53;;
43154;SDS011;34212;51.018;13.586;2024-01-15T07:31:49;11.85;;;6.70;;
43154;SDS011;34212;51.018;13.586;2024-01-15T07:36:52;12.65;;;6.82;;
43154;SDS011;34212;51.018;13.586;2024-01-15T07:41:53;11.25;;;6.05;;
43154;SDS011;34212;51.018;13.586;2024-01-15T07:46:55;10.23;;;6.82;;
43154;SDS011;34212;51.018;13.586;2024-01-15T07:51:57;15.02;;;8.27;;
43154;SDS011;34212;51.018;13.586;2024-01-15T07:57:00;13.40;;;7.40;;
43154;SDS011;34212;51.018;13.586;2024-01-15T08:02:02;13.65;;;6.95;;
43154;SDS011;34212;51.018;13.586;2024-01-15T08:07:04;11.85;;;6.50;;
43154;SDS011;34212;51.018;13.586;2024-01-15T08:12:08;13.10;;;6.13;;
43154;SDS011;34212;51.018;13.586;2024-01-15T08:17:11;15.10;;;6.47;;
43154;SDS011;34212;51.018;13.586;2024-01-15T08:22:13;11.57;;;6.95;;
43154;SDS011;34212;51.018;13.586;2024-01-15T08:27:14;12.70;;;6.63;;
43154;SDS011;34212;51.018;13.586;2024-01-15T08:32:16;12.85;;;6.50;;
43154;SDS011;34212;51.018;13.586;2024-01-15T08:37:18;9.90;;;4.93;;
43154;SDS011;34212;51.018;13.586;2024-01-15T08:42:20;11.63;;;5.50;;
43154;SDS011;34212;51.018;13.586;2024-01-15T08:47:21;11.70;;;5.47;;
43154;SDS011;34212;51.018;13.586;2024-01-15T08:52:23;15.05;;;6.45;;
43154;SDS011;34212;51.018;13.586;2024-01-15T08:57:25;12.35;;;5.72;;
43154;SDS011;34212;51.018;13.586;2024-01-15T09:02:26;11.93;;;6.15;;
43154;SDS011;34212;51.018;13.586;2024-01-15T09:07:28;10.32;;;4.75;;
43154;SDS011;34212;51.018;13.586;2024-01-15T09:12:29;9.98;;;5.60;;
43154;SDS011;34212;51.018;13.586;2024-01-15T09:17:34;9.65;;;5.05;;
43154;SDS011;34212;51.018;13.586;2024-01-15T09:22:37;13.55;;;6.10;;
43154;SDS011;34212;51.018;13.586;2024-01-15T09:27:40;11.20;;;5.40;;
43154;SDS011;34212;51.018;13.586;2024-01-15T09:32:41;8.77;;;5.00;;
43154;SDS011;34212;51.018;13.586;2024-01-15T09:37:43;8.07;;;4.63;;
43154;SDS011;34212;51.018;13.586;2024-01-15T09:42:48;11.13;;;5.18;;
43154;SDS011;34212;51.018;13.586;2024-01-15T09:47:51;8.53;;;5.50;;
43154;SDS011;34212;51.018;13.586;2024-01-15T09:52:53;11.32;;;5.40;;
43154;SDS011;34212;51.018;13.586;2024-01-15T09:57:55;12.52;;;5.78;;
43154;SDS011;34212;51.018;13.586;2024-01-15T10:02:59;10.30;;;5.43;;
43154;SDS011;34212;51.018;13.586;2024-01-15T10:08:01;9.90;;;5.28;;
43154;SDS011;34212;51.018;13.586;2024-01-15T10:13:05;8.55;;;4.25;;
43154;SDS011;34212;51.018;13.586;2024-01-15T10:18:08;77.90;;;7.50;;
43154;SDS011;34212;51.018;13.586;2024-01-15T10:23:11;12.45;;;4.90;;
43154;SDS011;34212;51.018;13.586;2024-01-15T10:28:13;6.97;;;4.13;;
43154;SDS011;34212;51.018;13.586;2024-01-15T10:33:14;10.85;;;5.18;;
43154;SDS011;34212;51.018;13.586;2024-01-15T10:38:17;9.40;;;4.73;;
43154;SDS011;34212;51.018;13.586;2024-01-15T10:43:21;12.77;;;4.65;;
43154;SDS011;34212;51.018;13.586;2024-01-15T10:48:26;9.32;;;5.20;;
43154;SDS011;34212;51.018;13.586;2024-01-15T10:53:30;7.50;;;4.05;;
43154;SDS011;34212;51.018;13.586;2024-01-15T10:58:33;10.68;;;5.18;;
43154;SDS011;34212;51.018;13.586;2024-01-15T11:03:36;10.85;;;5.10;;
43154;SDS011;34212;51.018;13.586;2024-01-15T11:08:38;10.70;;;5.17;;
43154;SDS011;34212;51.018;13.586;2024-01-15T11:13:43;7.88;;;4.60;;
43154;SDS011;34212;51.018;13.586;2024-01-15T11:24:00;11.30;;;5.15;;
43154;SDS011;34212;51.018;13.586;2024-01-15T11:34:06;8.20;;;5.43;;
43154;SDS011;34212;51.018;13.586;2024-01-15T11:44:30;10.07;;;4.70;;
43154;SDS011;34212;51.018;13.586;2024-01-15T11:55:12;10.15;;;4.22;;
43154;SDS011;34212;51.018;13.586;2024-01-15T12:00:23;9.05;;;3.97;;
43154;SDS011;34212;51.018;13.586;2024-01-15T12:05:25;9.40;;;4.65;;
43154;SDS011;34212;51.018;13.586;2024-01-15T12:10:27;10.18;;;5.25;;
43154;SDS011;34212;51.018;13.586;2024-01-15T12:15:29;9.90;;;5.22;;
43154;SDS011;34212;51.018;13.586;2024-01-15T12:20:31;9.65;;;5.22;;
43154;SDS011;34212;51.018;13.586;2024-01-15T12:25:33;8.75;;;4.95;;
43154;SDS011;34212;51.018;13.586;2024-01-15T12:30:35;7.65;;;4.97;;
43154;SDS011;34212;51.018;13.586;2024-01-15T12:35:38;9.15;;;5.03;;
43154;SDS011;34212;51.018;13.586;2024-01-15T12:40:39;10.13;;;4.80;;
43154;SDS011;34212;51.018;13.586;2024-01-15T12:45:41;10.85;;;4.93;;
43154;SDS011;34212;51.018;13.586;2024-01-15T12:50:44;9.00;;;4.88;;
43154;SDS011;34212;51.018;13.586;2024-01-15T12:55:46;8.05;;;4.35;;
43154;SDS011;34212;51.018;13.586;2024-01-15T13:00:48;11.55;;;5.78;;
43154;SDS011;34212;51.018;13.586;2024-01-15T13:05:50;9.02;;;5.10;;
43154;SDS011;34212;51.018;13.586;2024-01-15T13:10:53;8.07;;;5.00;;
43154;SDS011;34212;51.018;13.586;2024-01-15T13:15:58;7.38;;;4.38;;
43154;SDS011;34212;51.018;13.586;2024-01-15T13:20:59;9.23;;;5.30;;
43154;SDS011;34212;51.018;13.586;2024-01-15T13:26:01;9.27;;;5.28;;
43154;SDS011;34212;51.018;13.586;2024-01-15T13:31:03;11.07;;;5.55;;
43154;SDS011;34212;51.018;13.586;2024-01-15T13:36:05;9.10;;;5.63;;
43154;SDS011;34212;51.018;13.586;2024-01-15T13:41:11;10.98;;;5.65;;
43154;SDS011;34212;51.018;13.586;2024-01-15T13:46:13;10.80;;;5.22;;
43154;SDS011;34212;51.018;13.586;2024-01-15T13:51:14;9.73;;;5.85;;
43154;SDS011;34212;51.018;13.586;2024-01-15T13:56:16;9.63;;;5.38;;
43154;SDS011;34212;51.018;13.586;2024-01-15T14:01:20;9.57;;;5.55;;
43154;SDS011;34212;51.018;13.586;2024-01-15T14:06:22;12.27;;;6.15;;
43154;SDS011;34212;51.018;13.586;2024-01-15T14:11:25;10.05;;;5.90;;
43154;SDS011;34212;51.018;13.586;2024-01-15T14:16:26;11.68;;;5.65;;
43154;SDS011;34212;51.018;13.586;2024-01-15T14:21:28;10.52;;;5.13;;
43154;SDS011;34212;51.018;13.586;2024-01-15T14:26:29;10.23;;;5.30;;
43154;SDS011;34212;51.018;13.586;2024-01-15T14:31:31;11.50;;;5.63;;
43154;SDS011;34212;51.018;13.586;2024-01-15T14:36:34;10.95;;;4.70;;
43154;SDS011;34212;51.018;13.586;2024-01-15T14:41:36;8.68;;;5.18;;
43154;SDS011;34212;51.018;13.586;2024-01-15T14:46:38;12.15;;;5.30;;
43154;SDS011;34212;51.018;13.586;2024-01-15T14:51:40;11.48;;;5.78;;
43154;SDS011;34212;51.018;13.586;2024-01-15T14:56:41;261.33;;;12.63;;
43154;SDS011;34212;51.018;13.586;2024-01-15T15:01:44;10.05;;;4.72;;
43154;SDS011;34212;51.018;13.586;2024-01-15T15:06:45;10.20;;;5.38;;
43154;SDS011;34212;51.018;13.586;2024-01-15T15:11:47;10.48;;;4.75;;
43154;SDS011;34212;51.018;13.586;2024-01-15T15:16:49;9.85;;;4.93;;
43154;SDS011;34212;51.018;13.586;2024-01-15T15:21:50;9.95;;;5.97;;
43154;SDS011;34212;51.018;13.586;2024-01-15T15:26:52;9.35;;;5.18;;
43154;SDS011;34212;51.018;13.586;2024-01-15T15:31:55;12.98;;;5.40;;
43154;SDS011;34212;51.018;13.586;2024-01-15T15:36:57;8.13;;;5.30;;
43154;SDS011;34212;51.018;13.586;2024-01-15T15:41:59;13.63;;;6.05;;
43154;SDS011;34212;51.018;13.586;2024-01-15T15:47:01;17.17;;;5.85;;
43154;SDS011;34212;51.018;13.586;2024-01-15T15:52:02;11.07;;;6.47;;
43154;SDS011;34212;51.018;13.586;2024-01-15T15:57:04;15.23;;;6.20;;
43154;SDS011;34212;51.018;13.586;2024-01-15T16:02:06;11.15;;;5.97;;
43154;SDS011;34212;51.018;13.586;2024-01-15T16:07:07;11.23;;;6.15;;
43154;SDS011;34212;51.018;13.586;2024-01-15T16:12:11;10.32;;;6.07;;
43154;SDS011;34212;51.018;13.586;2024-01-15T16:17:13;11.67;;;6.17;;
43154;SDS011;34212;51.018;13.586;2024-01-15T16:22:34;10.70;;;6.28;;
43154;SDS011;34212;51.018;13.586;2024-01-15T16:27:56;15.25;;;6.75;;
43154;SDS011;34212;51.018;13.586;2024-01-15T16:32:57;11.32;;;6.93;;
43154;SDS011;34212;51.018;13.586;2024-01-15T16:37:59;13.52;;;6.20;;
43154;SDS011;34212;51.018;13.586;2024-01-15T16:43:02;10.38;;;6.03;;
43154;SDS011;34212;51.018;13.586;2024-01-15T16:48:03;14.88;;;6.80;;
43154;SDS011;34212;51.018;13.586;2024-01-15T16:53:06;10.30;;;6.53;;
43154;SDS011;34212;51.018;13.586;2024-01-15T16:58:08;9.73;;;5.65;;
43154;SDS011;34212;51.018;13.586;2024-01-15T17:03:09;14.38;;;7.20;;
43154;SDS011;34212;51.018;13.586;2024-01-15T17:08:11;9.48;;;5.72;;
43154;SDS011;34212;51.018;13.586;2024-01-15T17:13:13;9.25;;;5.25;;
43154;SDS011;34212;51.018;13.586;2024-01-15T17:18:14;10.00;;;5.57;;
43154;SDS011;34212;51.018;13.586;2024-01-15T17:23:17;10.32;;;5.78;;
43154;SDS011;34212;51.018;13.586;2024-01-15T17:28:19;10.27;;;5.60;;
43154;SDS011;34212;51.018;13.586;2024-01-15T17:33:24;7.80;;;5.45;;
43154;SDS011;34212;51.018;13.586;2024-01-15T17:38:27;9.50;;;4.93;;
43154;SDS011;34212;51.018;13.586;2024-01-15T17:48:30;9.32;;;5.53;;
43154;SDS011;34212;51.018;13.586;2024-01-15T17:53:36;9.80;;;6.03;;
43154;SDS011;34212;51.018;13.586;2024-01-15T17:58:38;10.32;;;5.82;;
43154;SDS011;34212;51.018;13.586;2024-01-15T18:03:41;11.98;;;6.45;;
43154;SDS011;34212;51.018;13.586;2024-01-15T18:08:43;8.73;;;5.30;;
43154;SDS011;34212;51.018;13.586;2024-01-15T18:13:45;10.60;;;6.63;;
43154;SDS011;34212;51.018;13.586;2024-01-15T18:18:47;10.85;;;6.43;;
43154;SDS011;34212;51.018;13.586;2024-01-15T18:23:48;9.30;;;6.45;;
43154;SDS011;34212;51.018;13.586;2024-01-15T18:28:50;546.67;;;26.17;;
43154;SDS011;34212;51.018;13.586;2024-01-15T18:33:52;9.80;;;5.85;;
43154;SDS011;34212;51.018;13.586;2024-01-15T18:38:53;10.15;;;5.75;;
43154;SDS011;34212;51.018;13.586;2024-01-15T18:43:55;8.00;;;5.40;;
43154;SDS011;34212;51.018;13.586;2024-01-15T18:48:58;10.50;;;6.35;;
43154;SDS011;34212;51.018;13.586;2024-01-15T18:54:00;9.77;;;5.80;;
43154;SDS011;34212;51.018;13.586;2024-01-15T18:59:01;10.10;;;6.25;;
43154;SDS011;34212;51.018;13.586;2024-01-15T19:04:03;9.80;;;6.45;;
43154;SDS011;34212;51.018;13.586;2024-01-15T19:09:05;9.75;;;6.43;;
43154;SDS011;34212;51.018;13.586;2024-01-15T19:14:07;9.65;;;6.03;;
43154;SDS011;34212;51.018;13.586;2024-01-15T19:19:08;10.38;;;5.47;;
43154;SDS011;34212;51.018;13.586;2024-01-15T19:24:10;7.63;;;5.28;;
43154;SDS011;34212;51.018;13.586;2024-01-15T19:29:11;7.13;;;4.70;;
43154;SDS011;34212;51.018;13.586;2024-01-15T19:34:13;7.57;;;5.07;;
43154;SDS011;34212;51.018;13.586;2024-01-15T19:39:14;12.13;;;5.20;;
43154;SDS011;34212;51.018;13.586;2024-01-15T19:44:16;460.27;;;18.02;;
43154;SDS011;34212;51.018;13.586;2024-01-15T19:49:18;7.45;;;4.47;;
43154;SDS011;34212;51.018;13.586;2024-01-15T19:54:19;8.68;;;5.07;;
43154;SDS011;34212;51.018;13.586;2024-01-15T19:59:21;9.93;;;4.80;;
43154;SDS011;34212;51.018;13.586;2024-01-15T20:04:22;5.82;;;4.20;;
43154;SDS011;34212;51.018;13.586;2024-01-15T20:09:24;8.15;;;4.68;;
43154;SDS011;34212;51.018;13.586;2024-01-15T20:14:25;6.07;;;3.75;;
43154;SDS011;34212;51.018;13.586;2024-01-15T20:19:28;4.78;;;3.55;;
43154;SDS011;34212;51.018;13.586;2024-01-15T20:24:30;6.30;;;3.60;;
43154;SDS011;34212;51.018;13.586;2024-01-15T20:29:31;6.55;;;3.95;;
43154;SDS011;34212;51.018;13.586;2024-01-15T20:34:33;7.03;;;4.00;;
43154;SDS011;34212;51.018;13.586;2024-01-15T20:39:35;7.35;;;3.42;;
43154;SDS011;34212;51.018;13.586;2024-01-15T20:44:36;6.22;;;3.80;;
43154;SDS011;34212;51.018;13.586;2024-01-15T20:49:38;6.47;;;3.88;;
43154;SDS011;34212;51.018;13.586;2024-01-15T20:54:39;5.43;;;3.33;;
43154;SDS011;34212;51.018;13.586;2024-01-15T20:59:41;4.93;;;3.28;;
43154;SDS011;34212;51.018;13.586;2024-01-15T21:04:42;5.00;;;3.13;;
43154;SDS011;34212;51.018;13.586;2024-01-15T21:09:44;4.60;;;3.47;;
43154;SDS011;34212;51.018;13.586;2024-01-15T21:14:45;4.38;;;2.95;;
43154;SDS011;34212;51.018;13.586;2024-01-15T21:19:47;17.33;;;5.00;;
43154;SDS011;34212;51.018;13.586;2024-01-15T21:24:49;7.80;;;2.80;;
43154;SDS011;34212;51.018;13.586;2024-01-15T21:29:51;5.13;;;2.85;;
43154;SDS011;34212;51.018;13.586;2024-01-15T21:34:52;21.90;;;2.70;;
43154;SDS011;34212;51.018;13.586;2024-01-15T21:39:54;0.90;;;0.80;;
43154;SDS011;34212;51.018;13.586;2024-01-15T21:44:55;1.40;;;1.00;;
43154;SDS011;34212;51.018;13.586;2024-01-15T21:49:57;2.30;;;1.60;;
43154;SDS011;34212;51.018;13.586;2024-01-15T21:54:58;2.58;;;1.58;;
43154;SDS011;34212;51.018;13.586;2024-01-15T22:00:00;2.72;;;1.40;;
43154;SDS011;34212;51.018;13.586;2024-01-15T22:05:10;2.90;;;1.20;;
43154;SDS011;34212;51.018;13.586;2024-01-15T22:10:12;1.58;;;1.05;;
43154;SDS011;34212;51.018;13.586;2024-01-15T22:15:13;1.50;;;1.05;;
43154;SDS011;34212;51.018;13.586;2024-01-15T22:20:15;0.85;;;0.77;;
43154;SDS011;34212;51.018;13.586;2024-01-15T22:25:17;0.43;;;0.43;;
43154;SDS011;34212;51.018;13.586;2024-01-15T22:30:18;3.70;;;0.63;;
43154;SDS011;34212;51.018;13.586;2024-01-15T22:35:20;1.48;;;0.40;;
43154;SDS011;34212;51.018;13.586;2024-01-15T22:40:21;3.03;;;0.50;;
43154;SDS011;34212;51.018;13.586;2024-01-15T22:45:23;3.35;;;0.77;;
43154;SDS011;34212;51.018;13.586;2024-01-15T22:50:25;1.10;;;0.93;;
43154;SDS011;34212;51.018;13.586;2024-01-15T22:55:27;5.05;;;1.50;;
43154;SDS011;34212;51.018;13.586;2024-01-15T23:00:28;5.72;;;1.38;;
43154;SDS011;34212;51.018;13.586;2024-01-15T23:05:30;6.55;;;1.20;;
43154;SDS011;34212;51.018;13.586;2024-01-15T23:10:32;10.88;;;1.20;;
43154;SDS011;34212;51.018;13.586;2024-01-15T23:15:34;3.65;;;0.90;;
43154;SDS011;34212;51.018;13.586;2024-01-15T23:20:35;14.30;;;1.20;;
43154;SDS011;34212;51.018;13.586;2024-01-15T23:25:37;7.45;;;0.70;;
43154;SDS011;34212;51.018;13.586;2024-01-15T23:30:39;8.52;;;0.90;;
43154;SDS011;34212;51.018;13.586;2024-01-15T23:35:40;9.05;;;0.93;;
43154;SDS011;34212;51.018;13.586;2024-01-15T23:40:42;6.57;;;0.85;;
43154;SDS011;34212;51.018;13.586;2024-01-15T23:45:44;8.15;;;0.88;;
43154;SDS011;34212;51.018;13.586;2024-01-15T23:50:51;10.80;;;1.92;;
43154;SDS011;34212;51.018;13.586;2024-01-15T23:55:53;5.37;;;1.07;;
